Time;durP1;ratioP1;P1;durP2;ratioP2;P2;SDS_P1;SDS_P2;PMS_P1;PMS_P2;Temp;Humidity;BMP_temperature;BMP_pressure;BME280_temperature;BME280_humidity;BME280_pressure;Samples;Min_cycle;Max_cycle;Signal;HPM_P1;HPM_P2
2022/09/13 00:00:26;;;;;;;;;7.00;5.33;;;;;23.93;53.18;100398.88;2102089;28;47110;-61
2022/09/13 00:01:27;;;;;;;;;8.00;7.00;;;;;23.93;53.40;100395.31;2102404;28;47365;-60
2022/09/13 00:02:27;;;;;;;;;8.00;8.00;;;;;23.92;53.19;100396.28;2104950;27;47451;-61
2022/09/13 00:03:27;;;;;;;;;7.75;7.75;;;;;23.92;53.19;100396.28;2105241;28;47432;-63
2022/09/13 00:04:28;;;;;;;;;5.75;5.75;;;;;23.92;53.17;100393.59;2104309;27;47108;-62
2022/09/13 00:05:29;;;;;;;;;12.00;8.75;;;;;23.91;53.33;100389.16;2100643;28;47765;-62
2022/09/13 00:06:29;;;;;;;;;7.00;7.00;;;;;23.89;53.19;100392.00;2102358;27;47936;-62
2022/09/13 00:07:29;;;;;;;;;6.75;6.50;;;;;23.90;53.24;100387.44;2101785;28;47066;-62
2022/09/13 00:08:30;;;;;;;;;8.00;8.00;;;;;23.90;52.95;100379.31;2086091;28;47042;-61
2022/09/13 00:09:30;;;;;;;;;6.50;6.50;;;;;23.87;53.03;100377.69;2087456;28;47669;-60
2022/09/13 00:10:33;;;;;;;;;7.00;7.00;;;;;23.88;53.17;100381.25;2103577;27;47325;-62
2022/09/13 00:11:33;;;;;;;;;6.00;6.00;;;;;23.87;53.24;100377.69;2104973;28;47121;-62
2022/09/13 00:12:34;;;;;;;;;5.00;5.00;;;;;23.86;53.36;100385.94;2104551;27;47769;-61
2022/09/13 00:13:34;;;;;;;;;9.00;7.00;;;;;23.84;53.22;100383.38;2101644;28;48107;-61
2022/09/13 00:14:35;;;;;;;;;7.67;7.67;;;;;23.85;53.22;100379.66;2102763;27;47415;-61
2022/09/13 00:15:40;;;;;;;;;6.25;6.25;;;;;23.84;53.38;100387.91;2101019;28;45685;-63
2022/09/13 00:16:41;;;;;;;;;7.40;7.40;;;;;23.84;53.42;100382.50;2103825;27;47107;-62
2022/09/13 00:17:41;;;;;;;;;6.50;6.50;;;;;23.83;53.72;100383.50;2101158;28;48401;-61
2022/09/13 00:18:42;;;;;;;;;5.67;5.67;;;;;23.83;53.50;100387.06;2100664;28;47269;-61
2022/09/13 00:19:42;;;;;;;;;6.00;6.00;;;;;23.80;53.74;100390.03;2104940;28;48125;-61
2022/09/13 00:20:43;;;;;;;;;7.67;6.67;;;;;23.81;53.70;100390.91;2104620;28;47481;-61
2022/09/13 00:21:43;;;;;;;;;7.67;7.00;;;;;23.79;53.64;100396.44;2105436;28;47711;-61
2022/09/13 00:22:44;;;;;;;;;8.00;8.00;;;;;23.76;54.02;100397.56;2102544;28;45294;-62
2022/09/13 00:23:46;;;;;;;;;6.67;6.67;;;;;23.76;53.88;100396.69;2100802;28;47522;-61
2022/09/13 00:24:47;;;;;;;;;10.25;8.25;;;;;23.74;54.15;100399.50;2103953;27;47701;-63
2022/09/13 00:25:47;;;;;;;;;6.00;6.00;;;;;23.73;54.03;100388.78;2100202;28;47341;-62
2022/09/13 00:26:48;;;;;;;;;96.25;92.00;;;;;23.73;54.13;100386.94;2104273;28;47100;-62
2022/09/13 00:27:49;;;;;;;;;66.00;52.00;;;;;23.75;54.10;100389.53;2100230;28;47610;-62
2022/09/13 00:28:51;;;;;;;;;43.25;37.00;;;;;23.75;54.15;100393.09;2101625;27;46693;-62
2022/09/13 00:29:51;;;;;;;;;19.00;17.60;;;;;23.75;54.23;100386.81;2098862;27;47994;-62
2022/09/13 00:30:52;;;;;;;;;10.00;10.00;;;;;23.74;54.02;100385.97;2100961;28;47497;-62
2022/09/13 00:31:52;;;;;;;;;8.50;8.50;;;;;23.74;54.22;100385.09;2105328;28;47997;-61
2022/09/13 00:32:53;;;;;;;;;17.25;16.75;;;;;23.73;53.94;100380.66;2103491;27;47716;-62
2022/09/13 00:33:54;;;;;;;;;35.00;31.00;;;;;23.73;53.95;100380.66;2099960;28;47843;-62
2022/09/13 00:34:54;;;;;;;;;29.40;28.20;;;;;23.73;54.13;100378.81;2103702;28;47885;-62
2022/09/13 00:35:55;;;;;;;;;20.25;19.75;;;;;23.72;54.37;100374.38;2101058;28;47342;-61
2022/09/13 00:36:55;;;;;;;;;13.25;12.50;;;;;23.73;54.14;100375.25;2103712;27;47881;-62
2022/09/13 00:37:58;;;;;;;;;10.00;10.00;;;;;23.72;54.33;100368.97;2096095;28;47519;-61
2022/09/13 00:38:59;;;;;;;;;9.00;9.00;;;;;23.70;54.04;100368.25;2095639;28;48109;-61
2022/09/13 00:40:01;;;;;;;;;9.20;9.00;;;;;23.69;54.11;100371.94;2098369;28;47549;-62
2022/09/13 00:41:04;;;;;;;;;8.00;8.00;;;;;23.66;54.35;100364.06;2102612;27;47949;-60
2022/09/13 00:42:04;;;;;;;;;10.40;10.40;;;;;23.66;54.31;100365.91;2099655;28;47944;-62
2022/09/13 00:43:11;;;;;;;;;8.50;8.00;;;;;23.66;54.14;100363.22;2102402;27;47045;-62
2022/09/13 00:44:52;;;;;;;;;9.20;8.40;;;;;23.66;53.99;100360.50;2102321;27;45865;-62
2022/09/13 00:45:52;;;;;;;;;14.00;13.00;;;;;23.64;54.25;100357.94;2097746;28;48205;-61
2022/09/13 00:46:53;;;;;;;;;13.50;12.00;;;;;23.62;54.68;100351.75;2085228;28;45448;-61
2022/09/13 00:48:04;;;;;;;;;10.25;10.25;;;;;23.63;54.36;100347.19;2088013;28;47724;-62
2022/09/13 00:49:07;;;;;;;;;10.25;9.00;;;;;23.62;54.25;100350.88;2103209;27;47425;-61
2022/09/13 00:50:36;;;;;;;;;9.60;8.40;;;;;23.61;54.37;100346.44;2105189;28;47776;-61
2022/09/13 00:51:38;;;;;;;;;9.75;9.75;;;;;23.60;54.62;100342.88;2104280;28;47756;-60
2022/09/13 00:52:40;;;;;;;;;11.00;10.75;;;;;23.59;54.42;100341.16;2104247;28;47788;-60
2022/09/13 00:53:46;;;;;;;;;10.60;10.60;;;;;23.59;54.19;100341.16;2098239;28;45458;-61
2022/09/13 00:55:00;;;;;;;;;11.00;8.75;;;;;23.57;54.50;100337.69;2104537;27;48196;-61
2022/09/13 00:56:10;;;;;;;;;9.20;9.20;;;;;23.57;54.38;100344.97;2101827;28;47652;-62
2022/09/13 00:57:12;;;;;;;;;7.40;7.40;;;;;23.54;54.07;100348.78;2103848;28;47569;-62
2022/09/13 00:58:19;;;;;;;;;9.25;8.75;;;;;23.53;54.40;100344.34;2077756;28;46968;-61
2022/09/13 00:59:29;;;;;;;;;10.60;8.00;;;;;23.52;54.09;100344.50;2080168;28;47591;-61
2022/09/13 01:00:30;;;;;;;;;8.75;8.75;;;;;23.51;54.18;100345.47;2098631;27;47912;-62
2022/09/13 01:01:39;;;;;;;;;7.67;7.67;;;;;23.49;54.34;100349.13;2105171;28;48064;-62
2022/09/13 01:02:46;;;;;;;;;5.60;5.60;;;;;23.48;54.17;100351.97;2104556;27;47770;-61
2022/09/13 01:03:48;;;;;;;;;8.80;8.80;;;;;23.47;54.19;100351.13;2100571;28;47757;-61
2022/09/13 01:04:49;;;;;;;;;7.00;6.40;;;;;23.48;54.23;100351.97;2103538;27;48052;-62
2022/09/13 01:06:01;;;;;;;;;9.00;9.00;;;;;23.49;54.24;100354.56;2102434;27;46681;-62
2022/09/13 01:07:08;;;;;;;;;10.00;8.00;;;;;23.51;54.36;100350.91;2093028;28;47519;-62
2022/09/13 01:08:14;;;;;;;;;7.00;7.00;;;;;23.51;54.43;100356.31;2095129;28;48092;-62
2022/09/13 01:09:15;;;;;;;;;10.00;8.80;;;;;23.52;54.33;100350.75;2104445;27;47910;-62
2022/09/13 01:10:16;;;;;;;;;7.00;7.00;;;;;23.52;54.19;100352.63;2104596;27;47766;-61
2022/09/13 01:11:29;;;;;;;;;10.40;8.20;;;;;23.53;53.81;100348.91;2104173;28;47620;-62
2022/09/13 01:12:41;;;;;;;;;6.00;5.00;;;;;23.54;53.27;100354.19;2102996;28;47638;-61
2022/09/13 01:13:43;;;;;;;;;7.25;6.25;;;;;23.53;53.71;100347.06;2104767;28;45216;-61
2022/09/13 01:14:45;;;;;;;;;6.50;6.50;;;;;23.56;53.63;100345.94;2084753;28;48106;-61
2022/09/13 01:15:45;;;;;;;;;8.25;6.75;;;;;23.56;53.51;100345.94;2084331;28;48687;-61
2022/09/13 01:16:46;;;;;;;;;6.00;6.00;;;;;23.57;53.30;100339.53;2103674;27;46514;-61
2022/09/13 01:17:48;;;;;;;;;6.00;6.00;;;;;23.57;53.38;100334.97;2099234;28;47170;-61
2022/09/13 01:18:48;;;;;;;;;8.00;6.00;;;;;23.57;53.34;100332.28;2100897;28;47629;-60
2022/09/13 01:19:49;;;;;;;;;6.00;6.00;;;;;23.57;53.25;100334.97;2104514;28;47712;-61
2022/09/13 01:21:17;;;;;;;;;5.00;5.00;;;;;23.58;53.40;100331.31;2104167;28;47522;-60
2022/09/13 01:22:29;;;;;;;;;7.25;6.00;;;;;23.58;53.51;100335.88;2103313;28;47243;-61
2022/09/13 01:23:48;;;;;;;;;8.75;8.75;;;;;23.58;53.54;100323.19;2097296;28;47290;-61
2022/09/13 01:25:09;;;;;;;;;6.75;6.75;;;;;23.57;53.48;100324.16;2101279;28;47760;-62
2022/09/13 01:26:22;;;;;;;;;5.75;5.75;;;;;23.56;53.51;100325.13;2099759;28;47962;-60
2022/09/13 01:27:34;;;;;;;;;6.75;5.75;;;;;23.56;53.17;100325.13;2099674;27;47117;-60
2022/09/13 01:28:54;;;;;;;;;7.50;6.00;;;;;23.56;53.58;100327.84;2099350;27;47730;-61
2022/09/13 01:30:05;;;;;;;;;8.75;5.25;;;;;23.57;53.30;100328.72;2103630;28;48391;-62
2022/09/13 01:31:21;;;;;;;;;9.00;6.50;;;;;23.56;53.56;100321.56;2092121;28;47131;-61
2022/09/13 01:32:56;;;;;;;;;4.75;4.75;;;;;23.56;53.27;100326.97;2090194;28;47747;-61
2022/09/13 01:34:17;;;;;;;;;6.40;6.20;;;;;23.53;53.50;100325.41;2093916;28;47982;-59
2022/09/13 01:35:52;;;;;;;;;6.00;6.00;;;;;23.52;53.47;100320.09;2094709;28;47624;-62
2022/09/13 01:37:10;;;;;;;;;4.75;4.25;;;;;23.50;53.76;100322.91;2101038;27;47960;-62
2022/09/13 01:38:11;;;;;;;;;7.00;5.50;;;;;23.49;53.82;100315.78;2109681;27;47651;-61
2022/09/13 01:39:20;;;;;;;;;5.00;5.00;;;;;23.47;53.55;100315.91;2112047;27;47823;-61
2022/09/13 01:40:37;;;;;;;;;6.50;5.25;;;;;23.47;53.83;100321.31;2097406;27;48086;-61
2022/09/13 01:41:53;;;;;;;;;5.50;5.50;;;;;23.46;53.60;100321.44;2095514;28;47483;-62
2022/09/13 01:43:15;;;;;;;;;6.00;5.00;;;;;23.46;53.29;100316.91;2092158;28;48048;-61
2022/09/13 01:44:22;;;;;;;;;6.00;5.20;;;;;23.45;53.53;100309.75;2099418;27;48076;-61
2022/09/13 01:46:02;;;;;;;;;5.00;4.00;;;;;23.46;53.80;100310.63;2097433;28;47753;-61
2022/09/13 01:47:17;;;;;;;;;5.00;5.00;;;;;23.47;53.54;100307.78;2067610;28;47503;-61
2022/09/13 01:48:28;;;;;;;;;7.20;7.20;;;;;23.49;53.84;100313.06;2087106;28;47923;-62
2022/09/13 01:49:40;;;;;;;;;5.00;5.00;;;;;23.49;53.43;100307.66;2101400;28;47725;-62
2022/09/13 01:51:07;;;;;;;;;5.00;5.00;;;;;23.48;53.68;100305.94;2103732;28;47588;-62
2022/09/13 01:52:23;;;;;;;;;4.00;4.00;;;;;23.48;53.53;100314.06;2054346;28;47485;-61
2022/09/13 01:53:46;;;;;;;;;5.75;5.75;;;;;23.49;53.49;100307.66;2059485;28;47994;-62
2022/09/13 01:55:01;;;;;;;;;6.25;5.25;;;;;23.49;53.56;100311.22;2061017;28;48005;-59
2022/09/13 01:56:04;;;;;;;;;7.40;7.40;;;;;23.51;53.46;100304.84;2061278;28;47652;-60
2022/09/13 01:57:27;;;;;;;;;5.75;5.75;;;;;23.52;53.68;100306.56;2061276;28;47476;-61
2022/09/13 01:58:44;;;;;;;;;5.00;5.00;;;;;23.51;53.11;100304.84;2061701;28;45967;-60
2022/09/13 01:59:52;;;;;;;;;5.00;5.00;;;;;23.50;53.42;100298.53;2062360;28;47562;-61
2022/09/13 02:01:16;;;;;;;;;5.00;5.00;;;;;23.49;53.02;100303.09;2061283;28;47476;-62
2022/09/13 02:02:52;;;;;;;;;6.00;6.00;;;;;23.48;53.79;100305.94;2056901;28;47587;-62
2022/09/13 02:04:05;;;;;;;;;6.75;5.00;;;;;23.47;53.53;100299.66;2046640;28;45231;-62
2022/09/13 02:05:18;;;;;;;;;4.75;4.75;;;;;23.48;53.64;100297.81;2048740;28;47771;-61
2022/09/13 02:06:23;;;;;;;;;4.75;4.75;;;;;23.49;53.60;100302.25;2045719;28;47268;-61
2022/09/13 02:07:29;;;;;;;;;5.75;5.75;;;;;23.49;53.60;100296.81;2049321;28;47622;-61
2022/09/13 02:08:39;;;;;;;;;5.00;5.00;;;;;23.49;53.69;100297.69;2046647;28;47654;-61
2022/09/13 02:09:46;;;;;;;;;6.00;4.75;;;;;23.47;53.57;100294.25;2047721;28;47567;-61
2022/09/13 02:11:02;;;;;;;;;7.50;7.50;;;;;23.47;53.30;100293.38;2047557;28;47955;-60
2022/09/13 02:12:09;;;;;;;;;8.75;5.50;;;;;23.46;53.74;100291.66;2046521;28;47600;-62
2022/09/13 02:13:16;;;;;;;;;7.75;6.75;;;;;23.44;53.83;100294.50;2049811;28;47817;-62
2022/09/13 02:14:38;;;;;;;;;4.75;4.75;;;;;23.42;53.59;100301.03;2045345;28;46468;-60
2022/09/13 02:15:46;;;;;;;;;5.25;5.25;;;;;23.42;53.80;100292.91;2046855;28;48132;-61
2022/09/13 02:16:55;;;;;;;;;7.00;7.00;;;;;23.40;53.55;100292.19;2048534;28;47748;-62
2022/09/13 02:18:06;;;;;;;;;5.25;5.00;;;;;23.38;53.64;100297.72;2046038;28;48093;-62
2022/09/13 02:19:12;;;;;;;;;6.25;6.25;;;;;23.39;53.51;100295.88;2048622;28;47492;-63
2022/09/13 02:20:40;;;;;;;;;6.75;6.00;;;;;23.37;53.56;100293.25;2045363;28;47964;-61
2022/09/13 02:21:44;;;;;;;;;5.50;5.50;;;;;23.35;53.68;100292.53;2048936;28;47181;-61
2022/09/13 02:22:50;;;;;;;;;5.75;5.00;;;;;23.36;53.81;100294.25;2046354;28;47380;-63
2022/09/13 02:24:00;;;;;;;;;6.00;6.00;;;;;23.35;53.72;100286.25;2045919;28;47487;-61
2022/09/13 02:25:06;;;;;;;;;5.25;5.25;;;;;23.35;53.64;100283.56;2049133;28;47722;-61
2022/09/13 02:26:11;;;;;;;;;6.00;6.00;;;;;23.34;53.67;100284.53;2046452;28;47739;-62
2022/09/13 02:27:15;;;;;;;;;6.00;5.50;;;;;23.33;53.75;100282.81;2049548;28;47678;-62
2022/09/13 02:28:22;;;;;;;;;4.00;4.00;;;;;23.32;53.73;100287.38;2036296;28;46027;-62
2022/09/13 02:29:27;;;;;;;;;4.75;4.50;;;;;23.31;53.64;100284.81;2037522;28;47657;-60
2022/09/13 02:30:32;;;;;;;;;7.50;4.75;;;;;23.30;53.84;100285.78;2056811;28;47812;-60
2022/09/13 02:31:46;;;;;;;;;5.00;4.25;;;;;23.29;53.84;100281.34;2070302;28;47971;-61
2022/09/13 02:33:00;;;;;;;;;5.25;4.50;;;;;23.29;53.66;100286.78;2068665;28;45364;-61
2022/09/13 02:34:09;;;;;;;;;6.25;6.25;;;;;23.27;53.64;100281.50;2070656;28;47878;-62
2022/09/13 02:35:23;;;;;;;;;7.50;5.50;;;;;23.26;53.82;100279.78;2068023;28;48038;-61
2022/09/13 02:36:28;;;;;;;;;4.25;4.25;;;;;23.25;53.67;100280.75;2055014;28;45940;-60
2022/09/13 02:37:31;;;;;;;;;7.00;7.00;;;;;23.26;54.02;100284.31;2053923;28;47469;-61
2022/09/13 02:38:39;;;;;;;;;6.75;5.75;;;;;23.25;53.71;100279.88;2052647;28;48044;-61
2022/09/13 02:40:22;;;;;;;;;6.75;6.75;;;;;23.24;53.80;100279.00;2061399;28;46656;-60
2022/09/13 02:41:32;;;;;;;;;8.60;6.00;;;;;23.24;53.83;100270.88;2070189;28;48118;-62
2022/09/13 02:42:49;;;;;;;;;5.75;5.25;;;;;23.25;53.73;100274.47;2066039;28;47539;-62
2022/09/13 02:43:58;;;;;;;;;5.00;5.00;;;;;23.25;53.64;100267.22;2069882;28;47584;-62
2022/09/13 02:44:59;;;;;;;;;6.00;6.00;;;;;23.25;53.80;100269.94;2068858;28;47508;-62
2022/09/13 02:46:21;;;;;;;;;6.50;6.50;;;;;23.25;53.68;100269.03;2070602;28;47647;-62
2022/09/13 02:47:21;;;;;;;;;7.00;7.00;;;;;23.25;53.87;100269.03;2066888;28;47875;-61
2022/09/13 02:48:35;;;;;;;;;5.33;5.33;;;;;23.25;53.66;100264.50;2069082;28;47411;-61
2022/09/13 02:49:44;;;;;;;;;5.50;5.50;;;;;23.24;53.61;100268.19;2070042;28;48067;-60
2022/09/13 02:51:06;;;;;;;;;4.25;4.00;;;;;23.22;53.87;100267.44;2069053;28;49328;-61
2022/09/13 02:52:17;;;;;;;;;6.00;5.25;;;;;23.20;53.99;100264.88;2062202;28;47696;-62
2022/09/13 02:53:50;;;;;;;;;5.25;3.75;;;;;23.18;53.76;100258.72;2070245;28;48045;-61
2022/09/13 02:55:13;;;;;;;;;5.25;5.25;;;;;23.19;54.15;100260.44;2066621;28;47606;-62
2022/09/13 02:56:27;;;;;;;;;5.50;4.25;;;;;23.20;53.68;100258.59;2068312;28;47487;-62
2022/09/13 02:57:39;;;;;;;;;4.75;4.75;;;;;23.22;53.75;100258.47;2070161;28;47789;-60
2022/09/13 02:59:04;;;;;;;;;5.00;5.00;;;;;23.19;54.27;100257.75;2069284;28;47633;-61
2022/09/13 03:00:05;;;;;;;;;5.75;5.75;;;;;23.21;53.82;100254.91;2063139;28;47556;-61
2022/09/13 03:01:06;;;;;;;;;4.50;4.50;;;;;23.21;54.15;100254.91;2060556;28;47423;-62
2022/09/13 03:02:13;;;;;;;;;6.33;5.00;;;;;23.20;54.06;100256.75;2064849;28;47500;-62
2022/09/13 03:03:15;;;;;;;;;4.50;4.50;;;;;23.21;53.96;100252.19;2066883;28;46079;-61
2022/09/13 03:04:15;;;;;;;;;5.75;5.75;;;;;23.20;53.96;100247.78;2068264;28;48179;-62
2022/09/13 03:05:16;;;;;;;;;11.67;9.00;;;;;23.20;54.07;100248.63;2067016;28;47029;-63
2022/09/13 03:06:24;;;;;;;;;11.75;11.75;;;;;23.22;53.92;100253.06;2065091;28;47857;-61
2022/09/13 03:07:25;;;;;;;;;7.75;7.75;;;;;23.22;53.81;100255.75;2066992;28;47880;-61
2022/09/13 03:08:27;;;;;;;;;6.50;6.00;;;;;23.22;53.93;100253.06;2081879;28;47509;-61
2022/09/13 03:09:28;;;;;;;;;6.25;5.75;;;;;23.21;53.99;100257.59;2086476;28;48013;-63
2022/09/13 03:10:43;;;;;;;;;6.67;5.33;;;;;23.23;53.88;100262.91;2085401;28;47298;-61
2022/09/13 03:12:01;;;;;;;;;5.75;4.25;;;;;23.22;53.96;100253.91;2086335;28;47183;-62
2022/09/13 03:13:33;;;;;;;;;4.50;4.00;;;;;23.22;54.20;100253.91;2068941;28;46089;-60
2022/09/13 03:15:02;;;;;;;;;5.75;5.75;;;;;23.20;54.21;100248.63;2069280;28;47813;-62
2022/09/13 03:16:29;;;;;;;;;5.25;5.25;;;;;23.18;54.09;100245.19;2078265;28;47556;-59
2022/09/13 03:17:35;;;;;;;;;5.00;5.00;;;;;23.18;53.95;100238.91;2056095;28;47707;-63
2022/09/13 03:19:01;;;;;;;;;7.00;5.25;;;;;23.16;54.08;100241.75;2052877;28;47777;-62
2022/09/13 03:20:20;;;;;;;;;5.25;5.25;;;;;23.14;54.18;100243.72;2054345;28;47202;-61
2022/09/13 03:21:51;;;;;;;;;4.50;4.50;;;;;23.15;54.38;100240.03;2056244;28;47454;-61
2022/09/13 03:22:54;;;;;;;;;2.75;2.75;;;;;23.17;54.31;100245.31;2052378;28;48132;-62
2022/09/13 03:24:27;;;;;;;;;6.00;6.00;;;;;23.15;54.24;100242.75;2053879;28;47850;-62
2022/09/13 03:25:50;;;;;;;;;3.00;3.00;;;;;23.12;54.20;100251.13;2046647;28;48301;-62
2022/09/13 03:27:19;;;;;;;;;6.50;4.75;;;;;23.12;54.54;100247.53;2037527;28;47994;-61
2022/09/13 03:28:28;;;;;;;;;5.50;4.50;;;;;23.10;54.56;100244.94;2036245;28;47538;-59
2022/09/13 03:29:43;;;;;;;;;6.25;6.25;;;;;23.10;54.35;100246.78;2037805;28;47629;-61
2022/09/13 03:30:49;;;;;;;;;6.00;5.00;;;;;23.07;54.58;100242.50;2035879;28;47709;-61
2022/09/13 03:32:01;;;;;;;;;4.00;4.00;;;;;23.06;54.53;100245.31;2039427;28;48036;-61
2022/09/13 03:33:20;;;;;;;;;6.75;6.75;;;;;23.05;54.74;100246.31;2046320;28;47350;-61
2022/09/13 03:34:29;;;;;;;;;5.00;5.00;;;;;23.03;54.16;100253.69;2044314;28;47736;-61
2022/09/13 03:35:35;;;;;;;;;5.00;5.00;;;;;23.01;54.54;100248.41;2036378;28;48028;-61
2022/09/13 03:36:53;;;;;;;;;3.50;3.50;;;;;23.01;54.66;100252.97;2037788;28;47311;-61
2022/09/13 03:38:02;;;;;;;;;4.00;4.00;;;;;23.00;54.48;100257.53;2042945;28;47614;-62
2022/09/13 03:39:21;;;;;;;;;5.00;4.00;;;;;23.01;54.56;100251.13;2037014;28;45960;-62
2022/09/13 03:40:37;;;;;;;;;5.00;5.00;;;;;23.00;54.81;100254.81;2032292;28;47447;-60
2022/09/13 03:41:43;;;;;;;;;3.25;3.25;;;;;23.01;54.75;100258.38;2039109;28;47947;-59
2022/09/13 03:42:57;;;;;;;;;5.33;5.33;;;;;23.02;54.36;100254.69;2036940;28;48205;-60
2022/09/13 03:44:03;;;;;;;;;6.00;6.00;;;;;23.03;54.53;100253.69;2039396;28;47388;-61
2022/09/13 03:45:07;;;;;;;;;5.00;5.00;;;;;23.06;54.68;100261.56;2037057;28;47620;-61
2022/09/13 03:46:14;;;;;;;;;6.25;5.50;;;;;23.07;54.16;100261.44;2039115;28;47890;-63
2022/09/13 03:47:16;;;;;;;;;5.75;5.75;;;;;23.11;54.50;100254.78;2038979;28;47681;-61
2022/09/13 03:48:19;;;;;;;;;5.00;5.00;;;;;23.14;54.39;100262.69;2038541;28;47765;-60
2022/09/13 03:49:22;;;;;;;;;6.00;5.00;;;;;23.15;54.45;100260.84;2038765;28;47318;-62
2022/09/13 03:50:25;;;;;;;;;4.25;3.75;;;;;23.16;54.44;100258.00;2037648;28;47898;-62
2022/09/13 03:51:26;;;;;;;;;4.50;4.50;;;;;23.18;54.17;100260.56;2038648;28;47778;-60
2022/09/13 03:52:26;;;;;;;;;4.00;4.00;;;;;23.21;54.24;100273.84;2032681;28;47336;-62
2022/09/13 03:53:30;;;;;;;;;7.00;5.00;;;;;23.23;54.25;100271.00;2039467;28;47454;-61
2022/09/13 03:54:35;;;;;;;;;7.75;4.50;;;;;23.24;54.33;100270.03;2037670;28;47929;-60
2022/09/13 03:55:42;;;;;;;;;4.00;4.00;;;;;23.26;54.45;100268.09;2073516;28;47052;-62
2022/09/13 03:56:42;;;;;;;;;5.00;5.00;;;;;23.27;54.27;100270.66;2069552;28;47510;-61
2022/09/13 03:57:43;;;;;;;;;7.33;5.00;;;;;23.28;54.27;100257.97;2063377;28;47423;-61
2022/09/13 03:58:45;;;;;;;;;4.00;4.00;;;;;23.29;54.19;100271.38;2070655;28;47134;-62
2022/09/13 03:59:56;;;;;;;;;6.25;5.00;;;;;23.29;54.08;100265.13;2062396;28;47212;-62
2022/09/13 04:00:56;;;;;;;;;4.00;4.00;;;;;23.28;53.83;100260.69;2063069;28;47990;-63
2022/09/13 04:01:57;;;;;;;;;4.00;4.00;;;;;23.28;54.14;100261.56;2071480;28;48361;-62
2022/09/13 04:02:57;;;;;;;;;5.00;5.00;;;;;23.29;54.14;100251.59;2066556;28;47808;-61
2022/09/13 04:03:57;;;;;;;;;5.67;4.67;;;;;23.30;54.35;100256.00;2071638;28;47368;-61
2022/09/13 04:04:58;;;;;;;;;4.33;4.00;;;;;23.30;53.82;100256.00;2082287;28;47968;-61
2022/09/13 04:05:58;;;;;;;;;7.33;6.33;;;;;23.31;54.31;100255.88;2081671;28;47374;-62
2022/09/13 04:07:02;;;;;;;;;4.00;4.00;;;;;23.32;54.11;100251.31;2085869;28;47715;-61
2022/09/13 04:08:04;;;;;;;;;5.00;5.00;;;;;23.33;54.03;100253.03;2076973;28;47202;-62
2022/09/13 04:09:05;;;;;;;;;5.00;5.00;;;;;23.34;54.09;100246.63;2077269;28;47938;-62
2022/09/13 04:10:06;;;;;;;;;5.00;5.00;;;;;23.34;54.17;100244.78;2079239;28;47854;-63
2022/09/13 04:11:08;;;;;;;;;7.00;7.00;;;;;23.35;54.04;100246.50;2098604;28;48220;-63
2022/09/13 04:12:13;;;;;;;;;5.25;5.00;;;;;23.37;53.92;100249.94;2104664;28;47608;-62
2022/09/13 04:13:13;;;;;;;;;5.00;5.00;;;;;23.37;54.03;100255.34;2101412;28;47699;-62
2022/09/13 04:14:15;;;;;;;;;3.00;3.00;;;;;23.37;53.93;100247.22;2104362;27;47775;-60
2022/09/13 04:15:15;;;;;;;;;4.75;4.75;;;;;23.38;53.86;100251.69;2104505;28;48116;-62
2022/09/13 04:16:16;;;;;;;;;4.00;4.00;;;;;23.39;53.92;100256.13;2104423;27;47473;-61
2022/09/13 04:17:17;;;;;;;;;6.00;6.00;;;;;23.39;53.97;100250.69;2103224;28;47573;-65
2022/09/13 04:18:17;;;;;;;;;4.67;4.00;;;;;23.40;53.90;100256.97;2104920;28;46766;-64
2022/09/13 04:19:18;;;;;;;;;4.33;4.33;;;;;23.40;53.71;100256.97;2104654;28;47566;-64
2022/09/13 04:20:19;;;;;;;;;6.67;5.00;;;;;23.41;53.53;100264.97;2105047;28;47303;-63
2022/09/13 04:21:20;;;;;;;;;5.00;5.00;;;;;23.38;53.66;100257.09;2101421;28;47401;-64
2022/09/13 04:22:20;;;;;;;;;4.60;4.60;;;;;23.42;54.01;100261.28;2103208;27;47756;-63
2022/09/13 04:23:22;;;;;;;;;6.33;5.33;;;;;23.40;53.64;100260.53;2091167;28;47457;-62
2022/09/13 04:24:27;;;;;;;;;5.00;5.00;;;;;23.40;53.71;100263.25;2093999;28;48060;-62
2022/09/13 04:25:28;;;;;;;;;4.00;4.00;;;;;23.40;53.69;100255.13;2088200;28;46049;-63
2022/09/13 04:26:28;;;;;;;;;6.33;6.33;;;;;23.39;53.75;100256.13;2092712;28;47292;-65
2022/09/13 04:27:28;;;;;;;;;4.00;4.00;;;;;23.40;53.50;100255.13;2101914;28;47242;-63
2022/09/13 04:28:29;;;;;;;;;7.33;5.33;;;;;23.42;53.52;100255.00;2098775;27;47196;-62
2022/09/13 04:29:31;;;;;;;;;4.75;3.50;;;;;23.42;53.66;100245.03;2104619;28;47780;-64
2022/09/13 04:30:31;;;;;;;;;5.25;5.25;;;;;23.43;53.72;100254.00;2102088;27;47697;-65
2022/09/13 04:31:32;;;;;;;;;6.00;6.00;;;;;23.42;53.59;100257.72;2103665;28;47222;-65
2022/09/13 04:32:32;;;;;;;;;4.33;4.33;;;;;23.45;53.71;100260.16;2102870;27;48191;-63
2022/09/13 04:33:33;;;;;;;;;4.00;4.00;;;;;23.43;53.46;100257.56;2094184;28;47202;-63
2022/09/13 04:34:33;;;;;;;;;5.33;5.33;;;;;23.46;53.20;100262.72;2095423;28;47441;-64
2022/09/13 04:35:34;;;;;;;;;6.00;6.00;;;;;23.46;53.40;100264.59;2094163;28;47635;-65
2022/09/13 04:36:34;;;;;;;;;6.25;5.00;;;;;23.46;53.38;100268.16;2104057;27;46800;-65
2022/09/13 04:37:35;;;;;;;;;5.25;5.25;;;;;23.46;53.46;100275.41;2095952;28;47251;-63
2022/09/13 04:38:36;;;;;;;;;5.00;4.00;;;;;23.45;53.54;100279.13;2094808;28;47505;-65
2022/09/13 04:39:36;;;;;;;;;5.00;3.00;;;;;23.46;53.28;100270.00;2104791;28;47469;-63
2022/09/13 04:40:38;;;;;;;;;6.75;5.75;;;;;23.46;53.53;100270.00;2104812;27;47393;-65
2022/09/13 04:41:40;;;;;;;;;4.75;4.75;;;;;23.45;53.56;100262.88;2105119;28;47958;-65
2022/09/13 04:42:43;;;;;;;;;4.25;4.25;;;;;23.47;53.59;100258.19;2104363;28;47509;-64
2022/09/13 04:43:48;;;;;;;;;3.25;3.25;;;;;23.46;53.37;100251.91;2104968;27;47822;-64
2022/09/13 04:44:48;;;;;;;;;5.25;5.25;;;;;23.46;53.12;100249.19;2094860;28;47639;-64
2022/09/13 04:45:49;;;;;;;;;4.00;4.00;;;;;23.46;53.26;100253.75;2096873;28;47501;-62
2022/09/13 04:46:50;;;;;;;;;6.25;6.00;;;;;23.44;53.25;100253.88;2104075;28;47243;-64
2022/09/13 04:47:52;;;;;;;;;6.67;5.33;;;;;23.45;53.08;100257.44;2100958;28;47617;-63
2022/09/13 04:48:53;;;;;;;;;4.50;4.50;;;;;23.44;53.18;100261.16;2100461;27;47936;-64
2022/09/13 04:49:55;;;;;;;;;6.75;4.75;;;;;23.43;53.57;100265.69;2099457;28;46734;-64
2022/09/13 04:51:03;;;;;;;;;4.00;4.00;;;;;23.46;53.23;100268.16;2101095;27;48395;-63
2022/09/13 04:52:03;;;;;;;;;6.00;4.00;;;;;23.44;53.25;100251.16;2096318;28;47850;-62
2022/09/13 04:53:04;;;;;;;;;6.00;4.33;;;;;23.45;53.07;100252.88;2101550;28;47736;-64
2022/09/13 04:54:05;;;;;;;;;5.00;3.67;;;;;23.47;53.22;100250.03;2099294;28;47330;-65
2022/09/13 04:55:06;;;;;;;;;4.67;4.67;;;;;23.46;53.04;100249.19;2102184;28;47938;-65
2022/09/13 04:56:08;;;;;;;;;5.25;5.25;;;;;23.47;53.26;100250.91;2102726;28;47716;-64
2022/09/13 04:57:08;;;;;;;;;5.25;5.25;;;;;23.47;53.37;100266.31;2102714;28;46648;-64
2022/09/13 04:58:09;;;;;;;;;5.67;5.00;;;;;23.48;53.15;100265.31;2096612;28;47960;-62
2022/09/13 04:59:10;;;;;;;;;5.00;4.67;;;;;23.48;53.34;100268.88;2085895;28;47330;-60
2022/09/13 05:00:11;;;;;;;;;5.50;5.50;;;;;23.49;53.19;100269.72;2087369;28;47477;-62
2022/09/13 05:01:12;;;;;;;;;4.00;4.00;;;;;23.47;53.26;100255.47;2101994;28;47216;-61
2022/09/13 05:02:12;;;;;;;;;5.67;5.67;;;;;23.48;53.18;100265.31;2103423;28;47554;-61
2022/09/13 05:03:12;;;;;;;;;4.33;4.00;;;;;23.46;53.20;100267.28;2104143;27;47999;-62
2022/09/13 05:04:13;;;;;;;;;4.00;4.00;;;;;23.46;53.34;100264.59;2103733;27;47716;-63
2022/09/13 05:05:13;;;;;;;;;6.00;4.67;;;;;23.44;53.43;100277.41;2104717;28;47324;-65
2022/09/13 05:06:16;;;;;;;;;4.33;4.00;;;;;23.40;53.16;100271.38;2104278;27;46931;-63
2022/09/13 05:07:17;;;;;;;;;5.25;5.25;;;;;23.37;53.34;100270.75;2103475;28;47180;-63
2022/09/13 05:08:17;;;;;;;;;5.33;5.33;;;;;23.35;53.53;100261.91;2103608;28;47810;-62
2022/09/13 05:09:17;;;;;;;;;3.67;3.67;;;;;23.31;53.69;100269.41;2104348;28;48065;-60
2022/09/13 05:10:18;;;;;;;;;4.00;4.00;;;;;23.30;53.42;100264.13;2085813;28;47533;-59
2022/09/13 05:11:18;;;;;;;;;2.67;2.67;;;;;23.28;53.75;100261.56;2084327;28;47468;-61
2022/09/13 05:12:21;;;;;;;;;4.00;4.00;;;;;23.27;53.73;100256.25;2104419;28;47810;-61